createdAt,value
2023-05-24T00:00:03.297Z,10.09
2023-05-24T00:01:03.651Z,10.04
2023-05-24T00:02:03.817Z,10.00
2023-05-24T00:03:03.075Z,10.00
2023-05-24T00:04:03.325Z,9.98
2023-05-24T00:05:03.393Z,9.95
2023-05-24T00:06:02.599Z,9.90
2023-05-24T00:07:02.955Z,9.85
2023-05-24T00:08:02.252Z,9.87
2023-05-24T00:09:02.625Z,9.86
2023-05-24T00:10:02.591Z,9.81
2023-05-24T00:11:02.436Z,9.82
2023-05-24T00:12:02.420Z,9.81
2023-05-24T00:13:03.275Z,9.80
2023-05-24T00:14:03.169Z,9.80
2023-05-24T00:15:02.924Z,9.78
2023-05-24T00:16:02.959Z,9.75
2023-05-24T00:17:03.044Z,9.78
2023-05-24T00:18:02.730Z,9.76
2023-05-24T00:19:02.742Z,9.69
2023-05-24T00:20:03.810Z,9.65
2023-05-24T00:21:02.318Z,9.60
2023-05-24T00:22:02.838Z,9.55
2023-05-24T00:23:02.699Z,9.52
2023-05-24T00:24:02.893Z,9.49
2023-05-24T00:25:03.052Z,9.47
2023-05-24T00:26:03.210Z,9.46
2023-05-24T00:27:02.542Z,9.45
2023-05-24T00:28:03.012Z,9.39
2023-05-24T00:29:03.456Z,9.35
2023-05-24T00:30:02.996Z,9.39
2023-05-24T00:31:03.057Z,9.42
2023-05-24T00:32:03.086Z,9.39
2023-05-24T00:33:03.622Z,9.36
2023-05-24T00:34:03.200Z,9.29
2023-05-24T00:35:03.525Z,9.27
2023-05-24T00:36:03.413Z,9.25
2023-05-24T00:37:03.589Z,9.23
2023-05-24T00:38:03.277Z,9.22
2023-05-24T00:39:03.257Z,9.22
2023-05-24T00:40:02.737Z,9.19
2023-05-24T00:41:02.747Z,9.13
2023-05-24T00:42:03.209Z,9.09
2023-05-24T00:43:02.280Z,9.06
2023-05-24T00:44:02.301Z,9.04
2023-05-24T00:45:02.246Z,9.01
2023-05-24T00:46:02.477Z,8.97
2023-05-24T00:47:02.730Z,8.95
2023-05-24T00:48:02.378Z,8.93
2023-05-24T00:49:02.641Z,8.92
2023-05-24T00:50:02.214Z,8.91
2023-05-24T00:51:02.661Z,8.88
2023-05-24T00:52:02.728Z,8.84
2023-05-24T00:53:02.990Z,8.80
2023-05-24T00:54:02.974Z,8.79
2023-05-24T00:55:03.124Z,8.78
2023-05-24T00:56:02.970Z,8.76
2023-05-24T00:57:03.300Z,8.74
2023-05-24T00:58:02.704Z,8.69
2023-05-24T00:59:02.804Z,8.66
2023-05-24T01:00:02.542Z,8.62
2023-05-24T01:01:02.958Z,8.57
2023-05-24T01:02:02.796Z,8.54
2023-05-24T01:03:02.814Z,8.51
2023-05-24T01:04:02.525Z,8.49
2023-05-24T01:05:02.497Z,8.47
2023-05-24T01:06:02.232Z,8.45
2023-05-24T01:07:02.192Z,8.45
2023-05-24T01:08:02.253Z,8.45
2023-05-24T01:09:02.487Z,8.46
2023-05-24T01:10:02.637Z,8.44
2023-05-24T01:11:02.254Z,8.40
2023-05-24T01:12:02.626Z,8.38
2023-05-24T01:13:02.457Z,8.35
2023-05-24T01:14:02.465Z,8.32
2023-05-24T01:15:02.349Z,8.29
2023-05-24T01:16:02.628Z,8.27
2023-05-24T01:17:02.879Z,8.25
2023-05-24T01:18:02.599Z,8.24
2023-05-24T01:19:02.477Z,8.20
2023-05-24T01:20:02.857Z,8.17
2023-05-24T01:21:02.348Z,8.16
2023-05-24T01:22:02.721Z,8.12
2023-05-24T01:23:02.697Z,8.08
2023-05-24T01:24:02.619Z,8.03
2023-05-24T01:25:02.720Z,7.99
2023-05-24T01:26:02.925Z,7.98
2023-05-24T01:27:02.511Z,7.97
2023-05-24T01:28:02.287Z,7.95
2023-05-24T01:29:02.168Z,7.94
2023-05-24T01:30:02.069Z,7.90
2023-05-24T01:31:02.080Z,7.87
2023-05-24T01:32:02.216Z,7.82
2023-05-24T01:33:02.851Z,7.79
2023-05-24T01:34:02.537Z,7.82
2023-05-24T01:35:02.588Z,7.82
2023-05-24T01:36:02.745Z,7.79
2023-05-24T01:37:02.602Z,7.79
2023-05-24T01:38:02.167Z,7.76
2023-05-24T01:39:01.924Z,7.75
2023-05-24T01:40:01.869Z,7.73
2023-05-24T01:41:01.885Z,7.69
2023-05-24T01:42:02.263Z,7.67
2023-05-24T01:43:02.433Z,7.69
2023-05-24T01:44:02.378Z,7.66
2023-05-24T01:45:02.233Z,7.64
2023-05-24T01:46:02.389Z,7.64
2023-05-24T01:47:02.354Z,7.63
2023-05-24T01:48:02.791Z,7.61
2023-05-24T01:49:02.723Z,7.56
2023-05-24T01:50:02.957Z,7.56
2023-05-24T01:51:02.798Z,7.62
2023-05-24T01:52:02.852Z,7.68
2023-05-24T01:53:02.757Z,7.65
2023-05-24T01:54:02.584Z,7.62
2023-05-24T01:55:02.483Z,7.56
2023-05-24T01:56:02.467Z,7.49
2023-05-24T01:57:02.511Z,7.46
2023-05-24T01:58:02.000Z,7.42
2023-05-24T01:59:02.029Z,7.40
2023-05-24T02:00:01.958Z,7.36
2023-05-24T02:01:02.056Z,7.30
2023-05-24T02:02:02.413Z,7.25
2023-05-24T02:03:02.852Z,7.21
2023-05-24T02:04:02.823Z,7.16
2023-05-24T02:05:02.825Z,7.14
2023-05-24T02:06:02.726Z,7.09
2023-05-24T02:07:03.324Z,7.08
2023-05-24T02:08:02.859Z,7.09
2023-05-24T02:09:02.743Z,7.06
2023-05-24T02:10:03.300Z,7.02
2023-05-24T02:11:03.140Z,6.96
2023-05-24T02:12:02.916Z,6.94
2023-05-24T02:13:02.554Z,6.96
2023-05-24T02:14:02.402Z,6.94
2023-05-24T02:15:02.558Z,6.94
2023-05-24T02:16:02.738Z,6.91
2023-05-24T02:17:02.646Z,6.88
2023-05-24T02:18:03.018Z,6.89
2023-05-24T02:19:02.595Z,6.88
2023-05-24T02:20:02.426Z,6.87
2023-05-24T02:21:02.851Z,6.86
2023-05-24T02:22:02.698Z,6.83
2023-05-24T02:23:03.042Z,6.80
2023-05-24T02:24:03.021Z,6.79
2023-05-24T02:25:02.879Z,6.77
2023-05-24T02:26:02.655Z,6.77
2023-05-24T02:27:03.102Z,6.75
2023-05-24T02:28:02.343Z,6.72
2023-05-24T02:29:02.134Z,6.71
2023-05-24T02:30:01.850Z,6.71
2023-05-24T02:31:02.204Z,6.72
2023-05-24T02:32:02.484Z,6.70
2023-05-24T02:33:02.590Z,6.65
2023-05-24T02:34:02.297Z,6.63
2023-05-24T02:35:02.828Z,6.62
2023-05-24T02:36:02.515Z,6.67
2023-05-24T02:37:02.448Z,6.65
2023-05-24T02:38:02.687Z,6.64
2023-05-24T02:39:02.589Z,6.58
2023-05-24T02:40:02.406Z,6.52
2023-05-24T02:41:02.228Z,6.47
2023-05-24T02:42:02.233Z,6.43
2023-05-24T02:43:02.932Z,6.43
2023-05-24T02:44:02.702Z,6.46
2023-05-24T02:45:02.377Z,6.49
2023-05-24T02:46:02.876Z,6.49
2023-05-24T02:47:02.701Z,6.46
2023-05-24T02:48:02.900Z,6.46
2023-05-24T02:49:02.854Z,6.46
2023-05-24T02:50:03.026Z,6.41
2023-05-24T02:51:02.506Z,6.38
2023-05-24T02:52:02.726Z,6.40
2023-05-24T02:53:02.511Z,6.40
2023-05-24T02:54:02.438Z,6.41
2023-05-24T02:55:02.361Z,6.46
2023-05-24T02:56:02.279Z,6.45
2023-05-24T02:57:02.119Z,6.42
2023-05-24T02:58:02.560Z,6.39
2023-05-24T02:59:02.671Z,6.37
2023-05-24T03:00:02.695Z,6.38
2023-05-24T03:01:02.618Z,6.36
2023-05-24T03:02:02.437Z,6.31
2023-05-24T03:03:02.811Z,6.27
2023-05-24T03:04:02.411Z,6.23
2023-05-24T03:05:02.725Z,6.20
2023-05-24T03:06:02.693Z,6.16
2023-05-24T03:07:02.600Z,6.13
2023-05-24T03:08:02.353Z,6.09
2023-05-24T03:09:02.421Z,6.04
2023-05-24T03:10:02.197Z,6.00
2023-05-24T03:11:02.267Z,6.01
2023-05-24T03:12:02.271Z,6.00
2023-05-24T03:13:02.857Z,5.98
2023-05-24T03:14:02.541Z,6.01
2023-05-24T03:15:02.813Z,5.99
2023-05-24T03:16:02.757Z,5.98
2023-05-24T03:17:02.747Z,5.95
2023-05-24T03:18:02.522Z,5.90
2023-05-24T03:19:02.204Z,5.86
2023-05-24T03:20:02.260Z,5.82
2023-05-24T03:21:02.178Z,5.79
2023-05-24T03:22:01.907Z,5.77
2023-05-24T03:23:01.488Z,5.76
2023-05-24T03:24:02.118Z,5.73
2023-05-24T03:25:01.680Z,5.73
2023-05-24T03:26:01.679Z,5.76
2023-05-24T03:27:01.601Z,5.76
2023-05-24T03:28:02.080Z,5.80
2023-05-24T03:29:02.764Z,5.83
2023-05-24T03:30:02.498Z,5.95
2023-05-24T03:31:02.229Z,5.98
2023-05-24T03:32:02.325Z,6.00
2023-05-24T03:33:02.810Z,6.00
2023-05-24T03:34:01.975Z,6.00
2023-05-24T03:35:02.177Z,5.97
2023-05-24T03:36:01.936Z,5.91
2023-05-24T03:37:02.083Z,5.82
2023-05-24T03:38:02.166Z,5.75
2023-05-24T03:39:03.016Z,5.73
2023-05-24T03:40:02.670Z,5.72
2023-05-24T03:41:02.727Z,5.69
2023-05-24T03:42:02.480Z,5.68
2023-05-24T03:43:04.470Z,5.65
2023-05-24T03:44:02.245Z,5.65
2023-05-24T03:45:01.988Z,5.64
2023-05-24T03:46:02.417Z,5.63
2023-05-24T03:47:02.323Z,5.60
2023-05-24T03:48:01.837Z,5.57
2023-05-24T03:49:02.512Z,5.59
2023-05-24T03:50:02.637Z,5.58
2023-05-24T03:51:02.892Z,5.57
2023-05-24T03:52:02.324Z,5.58
2023-05-24T03:53:02.402Z,5.56
2023-05-24T03:54:01.780Z,5.55
2023-05-24T03:55:01.790Z,5.52
2023-05-24T03:56:01.951Z,5.53
2023-05-24T03:57:01.946Z,5.52
2023-05-24T03:58:01.989Z,5.51
2023-05-24T03:59:01.650Z,5.52
2023-05-24T04:00:01.892Z,5.51
2023-05-24T04:01:01.528Z,5.54
2023-05-24T04:02:01.852Z,5.57
2023-05-24T04:03:01.441Z,5.58
2023-05-24T04:04:01.879Z,5.57
2023-05-24T04:05:01.825Z,5.56
2023-05-24T04:06:02.021Z,5.61
2023-05-24T04:07:02.099Z,5.68
2023-05-24T04:08:02.093Z,5.76
2023-05-24T04:09:02.659Z,5.84
2023-05-24T04:10:02.535Z,5.88
2023-05-24T04:11:02.212Z,5.94
2023-05-24T04:12:02.403Z,5.92
2023-05-24T04:13:02.373Z,5.92
2023-05-24T04:14:02.327Z,5.90
2023-05-24T04:15:01.654Z,5.90
2023-05-24T04:16:01.722Z,5.87
2023-05-24T04:17:02.058Z,5.80
2023-05-24T04:18:01.804Z,5.77
2023-05-24T04:19:02.510Z,5.78
2023-05-24T04:20:02.485Z,5.78
2023-05-24T04:21:02.465Z,5.77
2023-05-24T04:22:02.133Z,5.76
2023-05-24T04:23:02.190Z,5.74
2023-05-24T04:24:02.446Z,5.73
2023-05-24T04:25:02.733Z,5.70
2023-05-24T04:26:02.897Z,5.69
2023-05-24T04:27:02.974Z,5.69
2023-05-24T04:28:03.002Z,5.68
2023-05-24T04:29:01.627Z,5.67
2023-05-24T04:30:01.699Z,5.68
2023-05-24T04:31:01.841Z,5.68
2023-05-24T04:32:01.915Z,5.72
2023-05-24T04:33:01.763Z,5.74
2023-05-24T04:34:02.095Z,5.73
2023-05-24T04:35:02.387Z,5.73
2023-05-24T04:36:02.516Z,5.73
2023-05-24T04:37:02.621Z,5.74
2023-05-24T04:38:02.532Z,5.75
2023-05-24T04:39:01.890Z,5.76
2023-05-24T04:40:01.706Z,5.77
2023-05-24T04:41:01.910Z,5.78
2023-05-24T04:42:01.632Z,5.82
2023-05-24T04:43:01.943Z,5.87
2023-05-24T04:44:02.696Z,5.86
2023-05-24T04:45:02.579Z,5.87
2023-05-24T04:46:02.655Z,5.89
2023-05-24T04:47:02.713Z,5.92
2023-05-24T04:48:02.636Z,5.93
2023-05-24T04:49:02.046Z,5.96
2023-05-24T04:50:02.101Z,6.00
2023-05-24T04:51:01.995Z,6.03
2023-05-24T04:52:01.610Z,6.05
2023-05-24T04:53:02.110Z,6.06
2023-05-24T04:54:02.844Z,6.09
2023-05-24T04:55:02.822Z,6.08
2023-05-24T04:56:02.796Z,6.09
2023-05-24T04:57:02.570Z,6.11
2023-05-24T04:58:02.374Z,6.13
2023-05-24T04:59:01.554Z,6.15
2023-05-24T05:00:01.607Z,6.17
2023-05-24T05:01:01.658Z,6.19
2023-05-24T05:02:01.710Z,6.23
2023-05-24T05:03:01.714Z,6.26
2023-05-24T05:04:02.952Z,6.31
2023-05-24T05:05:02.916Z,6.35
2023-05-24T05:06:03.214Z,6.38
2023-05-24T05:07:03.163Z,6.40
2023-05-24T05:08:03.423Z,6.45
2023-05-24T05:09:02.874Z,6.52
2023-05-24T05:10:02.599Z,6.61
2023-05-24T05:11:02.604Z,6.67
2023-05-24T05:12:02.256Z,6.74
2023-05-24T05:13:02.787Z,6.80
2023-05-24T05:14:03.249Z,6.86
2023-05-24T05:15:03.135Z,6.91
2023-05-24T05:16:03.194Z,6.97
2023-05-24T05:17:02.833Z,7.00
2023-05-24T05:18:03.619Z,7.03
2023-05-24T05:19:02.904Z,7.10
2023-05-24T05:20:03.074Z,7.19
2023-05-24T05:21:02.969Z,7.30
2023-05-24T05:22:02.996Z,7.41
2023-05-24T05:23:02.595Z,7.53
2023-05-24T05:24:03.228Z,7.65
2023-05-24T05:25:02.743Z,7.77
2023-05-24T05:26:03.120Z,7.87
2023-05-24T05:27:02.635Z,7.96
2023-05-24T05:28:02.754Z,8.03
2023-05-24T05:29:03.284Z,8.13
2023-05-24T05:30:02.661Z,8.22
2023-05-24T05:31:02.730Z,8.29
2023-05-24T05:32:03.288Z,8.40
2023-05-24T05:33:02.754Z,8.51
2023-05-24T05:34:02.239Z,8.58
2023-05-24T05:35:02.451Z,8.60
2023-05-24T05:36:02.442Z,8.58
2023-05-24T05:37:02.404Z,8.56
2023-05-24T05:38:02.202Z,8.64
2023-05-24T05:39:02.678Z,8.74
2023-05-24T05:40:02.473Z,8.75
2023-05-24T05:41:02.203Z,8.74
2023-05-24T05:42:02.680Z,8.68
2023-05-24T05:43:02.153Z,8.64
2023-05-24T05:44:03.237Z,8.63
2023-05-24T05:45:03.444Z,8.63
2023-05-24T05:46:03.365Z,8.66
2023-05-24T05:47:03.416Z,8.69
2023-05-24T05:48:03.037Z,8.77
2023-05-24T05:49:02.519Z,8.84
2023-05-24T05:50:02.092Z,8.86
2023-05-24T05:51:02.513Z,8.90
2023-05-24T05:52:02.052Z,8.94
2023-05-24T05:53:02.156Z,8.97
2023-05-24T05:54:02.762Z,9.03
2023-05-24T05:55:02.233Z,9.10
2023-05-24T05:56:02.211Z,9.19
2023-05-24T05:57:02.711Z,9.26
2023-05-24T05:58:02.796Z,9.36
2023-05-24T05:59:02.446Z,9.49
2023-05-24T06:00:02.869Z,9.61
2023-05-24T06:01:03.079Z,9.67
2023-05-24T06:02:02.532Z,9.70
2023-05-24T06:03:03.037Z,9.73
2023-05-24T06:04:02.058Z,9.75
2023-05-24T06:05:01.846Z,9.75
2023-05-24T06:06:02.026Z,9.72
2023-05-24T06:07:02.128Z,9.76
2023-05-24T06:08:02.399Z,9.86
2023-05-24T06:09:02.945Z,10.02
2023-05-24T06:10:02.361Z,10.17
2023-05-24T06:11:02.836Z,10.26
2023-05-24T06:12:02.761Z,10.34
2023-05-24T06:13:02.660Z,10.46
2023-05-24T06:14:02.096Z,10.54
2023-05-24T06:15:02.124Z,10.69
2023-05-24T06:16:02.628Z,10.88
2023-05-24T06:17:02.313Z,11.06
2023-05-24T06:18:02.671Z,11.21
2023-05-24T06:19:06.332Z,11.35
2023-05-24T06:20:03.005Z,11.51
2023-05-24T06:21:02.537Z,11.62
2023-05-24T06:22:02.833Z,11.61
2023-05-24T06:23:02.486Z,11.70
2023-05-24T06:24:02.924Z,11.82
2023-05-24T06:25:03.234Z,11.89
2023-05-24T06:26:02.813Z,11.90
2023-05-24T06:27:05.168Z,11.94
2023-05-24T06:28:02.990Z,12.00
2023-05-24T06:29:02.142Z,12.01
2023-05-24T06:30:02.132Z,11.96
2023-05-24T06:31:01.951Z,11.93
2023-05-24T06:32:01.954Z,11.88
2023-05-24T06:33:02.278Z,11.93
2023-05-24T06:34:04.573Z,11.94
2023-05-24T06:35:02.068Z,12.06
2023-05-24T06:36:02.427Z,12.23
2023-05-24T06:37:02.427Z,12.43
2023-05-24T06:38:02.508Z,12.64
2023-05-24T06:39:02.267Z,12.77
2023-05-24T06:40:02.529Z,12.95
2023-05-24T06:41:02.758Z,13.13
2023-05-24T06:42:02.561Z,13.18
2023-05-24T06:43:02.594Z,13.27
2023-05-24T06:44:02.454Z,13.42
2023-05-24T06:45:02.555Z,13.58
2023-05-24T06:46:02.798Z,13.75
2023-05-24T06:47:03.043Z,13.86
2023-05-24T06:48:02.839Z,13.97
2023-05-24T06:49:02.316Z,14.04
2023-05-24T06:50:01.832Z,14.14
2023-05-24T06:51:02.108Z,14.18
2023-05-24T06:52:02.132Z,14.28
2023-05-24T06:53:02.137Z,14.34
2023-05-24T06:54:02.610Z,14.29
2023-05-24T06:55:02.896Z,14.29
2023-05-24T06:56:02.719Z,14.29
2023-05-24T06:57:02.955Z,14.23
2023-05-24T06:58:02.698Z,14.24
2023-05-24T06:59:02.201Z,14.28
2023-05-24T07:00:02.213Z,14.37
2023-05-24T07:01:02.564Z,14.42
2023-05-24T07:02:04.177Z,14.43
2023-05-24T07:03:02.557Z,14.43
2023-05-24T07:04:02.844Z,14.46
2023-05-24T07:05:02.433Z,14.49
2023-05-24T07:06:02.498Z,14.59
2023-05-24T07:07:02.502Z,14.72
2023-05-24T07:08:02.241Z,14.75
2023-05-24T07:09:02.261Z,14.66
2023-05-24T07:10:02.132Z,14.65
2023-05-24T07:11:01.950Z,14.77
2023-05-24T07:12:01.625Z,14.84
2023-05-24T07:13:01.787Z,14.93
2023-05-24T07:14:01.915Z,14.92
2023-05-24T07:15:02.462Z,14.83
2023-05-24T07:16:02.418Z,14.85
2023-05-24T07:17:02.048Z,14.89
2023-05-24T07:18:02.581Z,14.89
2023-05-24T07:19:04.726Z,14.85
2023-05-24T07:20:02.591Z,14.68
2023-05-24T07:21:02.399Z,14.55
2023-05-24T07:22:02.406Z,14.47
2023-05-24T07:23:02.596Z,14.48
2023-05-24T07:24:02.048Z,14.47
2023-05-24T07:25:01.725Z,14.46
2023-05-24T07:26:02.238Z,14.54
2023-05-24T07:27:01.753Z,14.55
2023-05-24T07:28:02.204Z,14.59
2023-05-24T07:29:02.165Z,14.60
2023-05-24T07:30:02.413Z,14.54
2023-05-24T07:31:02.269Z,14.49
2023-05-24T07:32:02.199Z,14.54
2023-05-24T07:33:02.463Z,14.56
2023-05-24T07:34:02.760Z,14.46
2023-05-24T07:35:03.022Z,14.42
2023-05-24T07:36:02.654Z,14.52
2023-05-24T07:37:03.092Z,14.69
2023-05-24T07:38:02.506Z,14.82
2023-05-24T07:39:02.734Z,14.93
2023-05-24T07:40:02.534Z,14.99
2023-05-24T07:41:02.779Z,15.06
2023-05-24T07:42:02.266Z,15.11
2023-05-24T07:43:04.027Z,15.12
2023-05-24T07:44:02.042Z,15.23
2023-05-24T07:45:02.005Z,15.40
2023-05-24T07:46:02.346Z,15.54
2023-05-24T07:47:01.751Z,15.64
2023-05-24T07:48:02.364Z,15.62
2023-05-24T07:49:02.284Z,15.58
2023-05-24T07:50:02.853Z,15.57
2023-05-24T07:51:02.610Z,15.60
2023-05-24T07:52:02.664Z,15.60
2023-05-24T07:53:02.378Z,15.65
2023-05-24T07:54:02.700Z,15.66
2023-05-24T07:55:02.762Z,15.64
2023-05-24T07:56:02.420Z,15.67
2023-05-24T07:57:02.293Z,15.65
2023-05-24T07:58:02.292Z,15.70
2023-05-24T07:59:02.715Z,15.76
2023-05-24T08:00:03.100Z,15.80
2023-05-24T08:01:02.961Z,15.84
2023-05-24T08:02:02.528Z,15.91
2023-05-24T08:03:03.192Z,15.96
2023-05-24T08:04:03.333Z,15.97
2023-05-24T08:05:03.037Z,15.88
2023-05-24T08:06:03.005Z,15.86
2023-05-24T08:07:02.987Z,15.93
2023-05-24T08:08:03.097Z,16.03
2023-05-24T08:09:02.917Z,16.15
2023-05-24T08:10:03.315Z,16.28
2023-05-24T08:11:03.362Z,16.37
2023-05-24T08:12:03.082Z,16.33
2023-05-24T08:13:02.984Z,16.24
2023-05-24T08:14:02.952Z,16.24
2023-05-24T08:15:03.438Z,16.31
2023-05-24T08:16:03.488Z,16.32
2023-05-24T08:17:03.016Z,16.37
2023-05-24T08:18:03.314Z,16.41
2023-05-24T08:19:02.494Z,16.48
2023-05-24T08:20:02.992Z,16.55
2023-05-24T08:21:02.740Z,16.67
2023-05-24T08:22:02.646Z,16.78
2023-05-24T08:23:02.575Z,16.83
2023-05-24T08:24:02.956Z,16.77
2023-05-24T08:25:03.251Z,16.73
2023-05-24T08:26:02.961Z,16.74
2023-05-24T08:27:02.921Z,16.72
2023-05-24T08:28:03.158Z,16.78
2023-05-24T08:29:02.276Z,16.83
2023-05-24T08:30:02.262Z,16.83
2023-05-24T08:31:02.071Z,16.90
2023-05-24T08:32:02.340Z,16.90
2023-05-24T08:33:02.273Z,16.90
2023-05-24T08:34:02.368Z,16.94
2023-05-24T08:35:18.480Z,16.89
2023-05-24T08:36:02.542Z,16.80
2023-05-24T08:37:02.211Z,16.80
2023-05-24T08:38:02.205Z,16.91
2023-05-24T08:39:02.980Z,17.02
2023-05-24T08:40:02.863Z,17.00
2023-05-24T08:41:02.805Z,17.03
2023-05-24T08:43:02.795Z,17.13
2023-05-24T08:44:02.020Z,17.20
2023-05-24T08:45:02.140Z,17.31
2023-05-24T08:46:02.579Z,17.48
2023-05-24T08:47:02.651Z,17.61
2023-05-24T08:48:02.604Z,17.67
2023-05-24T08:49:02.766Z,17.68
2023-05-24T08:50:02.820Z,17.65
2023-05-24T08:51:02.379Z,17.66
2023-05-24T08:52:02.415Z,17.70
2023-05-24T08:53:02.826Z,17.74
2023-05-24T08:54:02.943Z,17.81
2023-05-24T08:55:03.199Z,17.86
2023-05-24T08:56:03.202Z,17.90
2023-05-24T08:57:03.447Z,17.91
2023-05-24T08:58:03.163Z,17.75
2023-05-24T08:59:02.139Z,17.68
2023-05-24T09:00:02.673Z,17.67
2023-05-24T09:01:02.590Z,17.64
2023-05-24T09:02:02.277Z,17.70
2023-05-24T09:03:02.834Z,17.70
2023-05-24T09:04:02.724Z,17.63
2023-05-24T09:05:02.322Z,17.54
2023-05-24T09:06:02.610Z,17.52
2023-05-24T09:07:02.461Z,17.55
2023-05-24T09:08:02.713Z,17.58
2023-05-24T09:09:02.748Z,17.69
2023-05-24T09:10:02.616Z,17.85
2023-05-24T09:11:03.070Z,17.96
2023-05-24T09:12:02.762Z,18.07
2023-05-24T09:13:03.085Z,18.18
2023-05-24T09:14:01.761Z,18.30
2023-05-24T09:15:02.101Z,18.37
2023-05-24T09:16:02.419Z,18.42
2023-05-24T09:17:02.298Z,18.42
2023-05-24T09:18:02.429Z,18.47
2023-05-24T09:19:02.267Z,18.43
2023-05-24T09:20:01.922Z,18.34
2023-05-24T09:21:02.354Z,18.16
2023-05-24T09:22:01.820Z,17.92
2023-05-24T09:23:02.405Z,17.79
2023-05-24T09:24:02.851Z,17.79
2023-05-24T09:25:02.696Z,17.77
2023-05-24T09:26:02.430Z,17.73
2023-05-24T09:27:02.778Z,17.74
2023-05-24T09:28:02.802Z,17.75
2023-05-24T09:29:02.255Z,17.87
2023-05-24T09:30:02.063Z,17.99
2023-05-24T09:31:05.365Z,17.95
2023-05-24T09:32:02.134Z,17.86
2023-05-24T09:33:01.868Z,17.83
2023-05-24T09:34:01.954Z,17.80
2023-05-24T09:35:02.609Z,17.82
2023-05-24T09:36:02.401Z,17.80
2023-05-24T09:37:01.870Z,17.76
2023-05-24T09:38:02.484Z,17.65
2023-05-24T09:39:02.817Z,17.57
2023-05-24T09:40:02.660Z,17.63
2023-05-24T09:41:03.031Z,17.73
2023-05-24T09:42:02.629Z,17.87
2023-05-24T09:43:03.012Z,17.95
2023-05-24T09:44:02.108Z,17.95
2023-05-24T09:45:02.092Z,17.87
2023-05-24T09:46:01.739Z,17.86
2023-05-24T09:47:02.163Z,17.88
2023-05-24T09:48:01.985Z,17.90
2023-05-24T09:49:02.384Z,17.95
2023-05-24T09:50:02.205Z,17.94
2023-05-24T09:51:02.280Z,17.90
2023-05-24T09:52:02.416Z,17.73
2023-05-24T09:53:02.154Z,17.72
2023-05-24T09:54:02.150Z,17.68
2023-05-24T09:55:02.077Z,17.57
2023-05-24T09:56:02.609Z,17.51
2023-05-24T09:57:03.403Z,17.49
2023-05-24T09:58:02.509Z,17.44
2023-05-24T09:59:02.420Z,17.56
2023-05-24T10:00:02.512Z,17.54
2023-05-24T10:01:02.874Z,17.57
2023-05-24T10:02:02.298Z,17.66
2023-05-24T10:03:02.606Z,17.73
2023-05-24T10:04:05.512Z,17.85
2023-05-24T10:05:03.806Z,17.96
2023-05-24T10:06:03.470Z,17.93
2023-05-24T10:07:03.961Z,17.79
2023-05-24T10:08:03.960Z,17.77
2023-05-24T10:09:02.531Z,17.78
2023-05-24T10:10:04.151Z,17.77
2023-05-24T10:11:02.551Z,17.94
2023-05-24T10:12:03.103Z,18.07
2023-05-24T10:13:02.844Z,18.24
2023-05-24T10:14:03.112Z,18.31
2023-05-24T10:15:02.644Z,18.35
2023-05-24T10:16:02.826Z,18.31
2023-05-24T10:17:03.305Z,18.31
2023-05-24T10:18:03.369Z,18.26
2023-05-24T10:19:03.724Z,18.18
2023-05-24T10:20:03.324Z,18.01
2023-05-24T10:21:03.430Z,17.92
2023-05-24T10:22:03.335Z,17.95
2023-05-24T10:23:03.449Z,17.94
2023-05-24T10:24:03.628Z,17.84
2023-05-24T10:25:03.511Z,17.87
2023-05-24T10:26:03.553Z,17.93
2023-05-24T10:27:03.567Z,17.94
2023-05-24T10:28:03.848Z,17.95
2023-05-24T10:29:03.352Z,18.06
2023-05-24T10:30:04.155Z,18.15
2023-05-24T10:31:03.067Z,18.24
2023-05-24T10:32:03.148Z,18.19
2023-05-24T10:33:03.406Z,18.03
2023-05-24T10:34:07.992Z,17.86
2023-05-24T10:35:03.329Z,17.82
2023-05-24T10:36:03.585Z,17.86
2023-05-24T10:37:03.387Z,17.92
2023-05-24T10:38:03.639Z,17.97
2023-05-24T10:39:02.832Z,18.04
2023-05-24T10:40:03.197Z,18.12
2023-05-24T10:41:03.199Z,18.06
2023-05-24T10:42:03.369Z,17.97
2023-05-24T10:43:03.201Z,18.02
2023-05-24T10:45:03.377Z,18.19
2023-05-24T10:46:03.560Z,18.21
2023-05-24T10:47:03.875Z,18.21
2023-05-24T10:48:03.385Z,18.26
2023-05-24T10:49:03.113Z,18.29
2023-05-24T10:50:02.955Z,18.31
2023-05-24T10:51:03.161Z,18.41
2023-05-24T10:52:02.807Z,18.48
2023-05-24T10:53:03.357Z,18.45
2023-05-24T10:54:03.390Z,18.42
2023-05-24T10:55:04.363Z,18.40
2023-05-24T10:56:02.792Z,18.32
2023-05-24T10:57:03.432Z,18.26
2023-05-24T10:58:02.988Z,18.28
2023-05-24T10:59:03.447Z,18.17
2023-05-24T11:00:03.415Z,18.04
2023-05-24T11:01:03.420Z,18.03
2023-05-24T11:02:03.420Z,18.06
2023-05-24T11:03:03.093Z,18.10
2023-05-24T11:04:02.804Z,18.11
2023-05-24T11:05:02.914Z,18.03
2023-05-24T11:06:02.825Z,18.07
2023-05-24T11:07:02.384Z,18.12
2023-05-24T11:08:02.321Z,18.13
2023-05-24T11:09:02.487Z,18.11
2023-05-24T11:10:02.916Z,18.12
2023-05-24T11:11:15.005Z,18.08
2023-05-24T11:12:02.576Z,18.06
2023-05-24T11:13:03.028Z,17.91
2023-05-24T11:14:03.318Z,17.89
2023-05-24T11:15:03.420Z,17.87
2023-05-24T11:16:03.054Z,17.77
2023-05-24T11:17:03.274Z,17.79
2023-05-24T11:18:03.435Z,17.93
2023-05-24T11:19:03.535Z,18.09
2023-05-24T11:20:03.260Z,18.30
2023-05-24T11:21:03.330Z,18.47
2023-05-24T11:22:03.653Z,18.61
2023-05-24T11:23:03.455Z,18.68
2023-05-24T11:24:02.693Z,18.73
2023-05-24T11:25:02.984Z,18.68
2023-05-24T11:26:03.201Z,18.71
2023-05-24T11:27:02.998Z,18.78
2023-05-24T11:28:02.835Z,18.84
2023-05-24T11:29:05.208Z,18.90
2023-05-24T11:30:03.000Z,18.96
2023-05-24T11:31:03.020Z,18.98
2023-05-24T11:32:03.223Z,19.08
2023-05-24T11:33:03.220Z,19.17
2023-05-24T11:34:03.551Z,19.20
2023-05-24T11:35:03.117Z,19.14
2023-05-24T11:36:03.492Z,19.22
2023-05-24T11:37:03.377Z,19.26
2023-05-24T11:38:03.355Z,19.33
2023-05-24T11:39:03.383Z,19.42
2023-05-24T11:40:03.551Z,19.42
2023-05-24T11:41:03.585Z,19.44
2023-05-24T11:42:03.618Z,19.45
2023-05-24T11:43:02.942Z,19.50
2023-05-24T11:44:02.625Z,19.59
2023-05-24T11:45:03.080Z,19.68
2023-05-24T11:46:02.961Z,19.71
2023-05-24T11:47:02.778Z,19.79
2023-05-24T11:48:02.945Z,19.83
2023-05-24T11:49:03.259Z,19.76
2023-05-24T11:50:03.146Z,19.65
2023-05-24T11:51:03.417Z,19.57
2023-05-24T11:52:03.555Z,19.59
2023-05-24T11:53:03.757Z,19.71
2023-05-24T11:54:02.711Z,19.78
2023-05-24T11:55:03.182Z,19.69
2023-05-24T11:56:02.984Z,19.55
2023-05-24T11:57:03.103Z,19.35
2023-05-24T11:58:03.121Z,19.21
2023-05-24T11:59:03.674Z,19.11
2023-05-24T12:00:03.217Z,19.05
2023-05-24T12:01:03.343Z,18.83
2023-05-24T12:02:03.327Z,18.64
2023-05-24T12:03:03.358Z,18.62
2023-05-24T12:04:03.273Z,18.58
2023-05-24T12:05:03.121Z,18.69
2023-05-24T12:06:03.223Z,18.70
2023-05-24T12:07:02.759Z,18.69
2023-05-24T12:08:02.770Z,18.63
2023-05-24T12:09:03.590Z,18.40
2023-05-24T12:10:03.427Z,18.13
2023-05-24T12:11:03.278Z,17.91
2023-05-24T12:12:03.099Z,17.78
2023-05-24T12:13:03.369Z,17.79
2023-05-24T12:14:02.259Z,17.81
2023-05-24T12:15:02.366Z,17.81
2023-05-24T12:16:02.273Z,17.81
2023-05-24T12:17:02.331Z,17.84
2023-05-24T12:18:02.280Z,17.88
2023-05-24T12:19:09.512Z,17.90
2023-05-24T12:20:02.578Z,17.91
2023-05-24T12:21:02.353Z,17.90
2023-05-24T12:22:02.488Z,17.79
2023-05-24T12:23:03.024Z,17.75
2023-05-24T12:24:02.716Z,17.76
2023-05-24T12:25:03.169Z,17.78
2023-05-24T12:26:03.087Z,17.81
2023-05-24T12:27:02.649Z,17.86
2023-05-24T12:28:03.200Z,17.85
2023-05-24T12:29:03.319Z,17.87
2023-05-24T12:30:03.617Z,17.87
2023-05-24T12:31:03.043Z,17.92
2023-05-24T12:32:03.350Z,17.91
2023-05-24T12:33:03.523Z,17.87
2023-05-24T12:34:03.004Z,17.86
2023-05-24T12:35:03.037Z,17.85
2023-05-24T12:36:02.956Z,17.75
2023-05-24T12:37:02.983Z,17.71
2023-05-24T12:38:03.011Z,17.73
2023-05-24T12:39:03.211Z,17.80
2023-05-24T12:40:03.393Z,17.82
2023-05-24T12:41:12.951Z,17.92
2023-05-24T12:42:02.819Z,17.95
2023-05-24T12:43:03.466Z,17.95
2023-05-24T12:44:02.663Z,17.97
2023-05-24T12:45:02.481Z,17.93
2023-05-24T12:46:02.592Z,17.88
2023-05-24T12:47:02.758Z,17.80
2023-05-24T12:48:02.390Z,17.77
2023-05-24T12:49:03.633Z,17.70
2023-05-24T12:50:03.244Z,17.68
2023-05-24T12:51:03.454Z,17.68
2023-05-24T12:52:03.018Z,17.62
2023-05-24T12:53:03.230Z,17.62
2023-05-24T12:54:02.612Z,17.60
2023-05-24T12:55:02.440Z,17.57
2023-05-24T12:56:02.538Z,17.58
2023-05-24T12:57:02.964Z,17.57
2023-05-24T12:58:02.546Z,17.52
2023-05-24T12:59:02.530Z,17.44
2023-05-24T13:00:02.324Z,17.42
2023-05-24T13:01:02.587Z,17.40
2023-05-24T13:02:02.774Z,17.43
2023-05-24T13:03:02.853Z,17.44
2023-05-24T13:04:03.032Z,17.48
2023-05-24T13:05:03.055Z,17.51
2023-05-24T13:06:02.983Z,17.53